createdAt,value
2017-12-19T00:02:27.007Z,17.01
2017-12-19T00:04:54.455Z,17.02
2017-12-19T00:07:22.036Z,17.01
2017-12-19T00:09:49.494Z,17.01
2017-12-19T00:12:16.948Z,16.98
2017-12-19T00:14:44.428Z,16.97
2017-12-19T00:17:11.876Z,16.97
2017-12-19T00:19:39.376Z,16.96
2017-12-19T00:22:06.836Z,16.96
2017-12-19T00:24:34.320Z,16.96
2017-12-19T00:27:01.971Z,16.95
2017-12-19T00:29:29.423Z,16.93
2017-12-19T00:31:57.096Z,16.91
2017-12-19T00:34:24.755Z,16.90
2017-12-19T00:36:52.416Z,16.90
2017-12-19T00:39:19.871Z,16.89
2017-12-19T00:41:47.315Z,16.89
2017-12-19T00:44:14.795Z,16.88
2017-12-19T00:46:42.439Z,16.86
2017-12-19T00:49:10.262Z,16.86
2017-12-19T00:51:37.723Z,16.84
2017-12-19T00:54:05.174Z,16.84
2017-12-19T00:56:32.639Z,16.84
2017-12-19T00:59:00.095Z,16.83
2017-12-19T01:01:27.581Z,16.81
2017-12-19T01:03:55.255Z,16.81
2017-12-19T01:06:22.705Z,16.79
2017-12-19T01:08:50.175Z,16.79
2017-12-19T01:11:17.627Z,16.78
2017-12-19T01:13:45.148Z,16.77
2017-12-19T01:16:12.771Z,16.77
2017-12-19T01:18:40.225Z,16.77
2017-12-19T01:21:07.690Z,16.75
2017-12-19T01:23:35.159Z,16.76
2017-12-19T01:26:02.611Z,16.74
2017-12-19T01:28:30.078Z,16.75
2017-12-19T01:30:57.529Z,16.74
2017-12-19T01:33:25.008Z,16.72
2017-12-19T01:35:52.452Z,16.71
2017-12-19T01:38:19.932Z,16.70
2017-12-19T01:40:47.395Z,16.70
2017-12-19T01:43:14.871Z,16.69
2017-12-19T01:45:42.318Z,16.67
2017-12-19T01:48:09.791Z,16.67
2017-12-19T01:50:37.266Z,16.67
2017-12-19T01:53:04.724Z,16.66
2017-12-19T01:55:32.516Z,16.66
2017-12-19T01:57:59.975Z,16.63
2017-12-19T02:00:27.428Z,16.63
2017-12-19T02:02:54.904Z,16.63
2017-12-19T02:05:22.359Z,16.62
2017-12-19T02:07:49.839Z,16.62
2017-12-19T02:10:17.290Z,16.60
2017-12-19T02:12:44.762Z,16.59
2017-12-19T02:15:12.221Z,16.59
2017-12-19T02:17:39.692Z,16.59
2017-12-19T02:20:07.139Z,16.58
2017-12-19T02:22:34.613Z,16.57
2017-12-19T02:25:02.059Z,16.57
2017-12-19T02:27:29.539Z,16.57
2017-12-19T02:29:56.979Z,16.55
2017-12-19T02:32:24.456Z,16.55
2017-12-19T02:34:52.111Z,16.55
2017-12-19T02:37:19.590Z,16.54
2017-12-19T02:39:47.242Z,16.53
2017-12-19T02:42:14.687Z,16.52
2017-12-19T02:44:42.158Z,16.52
2017-12-19T02:47:09.615Z,16.52
2017-12-19T02:49:37.095Z,16.52
2017-12-19T02:52:04.547Z,16.50
2017-12-19T02:54:32.015Z,16.50
2017-12-19T02:56:59.470Z,16.50
2017-12-19T02:59:27.431Z,16.49
2017-12-19T03:01:54.883Z,16.48
2017-12-19T03:04:22.336Z,16.47
2017-12-19T03:06:49.816Z,16.46
2017-12-19T03:09:17.263Z,16.46
2017-12-19T03:11:44.735Z,16.45
2017-12-19T03:14:12.218Z,16.45
2017-12-19T03:16:39.896Z,16.45
2017-12-19T03:19:07.351Z,16.43
2017-12-19T03:21:34.834Z,16.42
2017-12-19T03:24:02.299Z,16.41
2017-12-19T03:26:29.943Z,16.43
2017-12-19T03:28:57.420Z,16.40
2017-12-19T03:31:24.876Z,16.40
2017-12-19T03:33:52.359Z,16.40
2017-12-19T03:36:19.820Z,16.41
2017-12-19T03:38:47.275Z,16.39
2017-12-19T03:41:14.742Z,16.39
2017-12-19T03:43:42.204Z,16.38
2017-12-19T03:46:09.686Z,16.37
2017-12-19T03:48:37.143Z,16.37
2017-12-19T03:51:04.590Z,16.35
2017-12-19T03:53:32.069Z,16.35
2017-12-19T03:55:59.521Z,16.36
2017-12-19T03:58:27.004Z,16.35
2017-12-19T04:00:54.464Z,16.34
2017-12-19T04:03:21.952Z,16.32
2017-12-19T04:05:49.398Z,16.33
2017-12-19T04:08:16.867Z,16.32
2017-12-19T04:10:44.328Z,16.31
2017-12-19T04:13:11.799Z,16.30
2017-12-19T04:15:39.260Z,16.31
2017-12-19T04:18:06.716Z,16.31
2017-12-19T04:20:34.197Z,16.30
2017-12-19T04:23:01.833Z,16.29
2017-12-19T04:25:29.310Z,16.28
2017-12-19T04:27:56.771Z,16.29
2017-12-19T04:30:24.243Z,16.28
2017-12-19T04:32:51.691Z,16.26
2017-12-19T04:35:19.156Z,16.27
2017-12-19T04:37:46.640Z,16.25
2017-12-19T04:40:14.272Z,16.25
2017-12-19T04:42:41.752Z,16.25
2017-12-19T04:45:09.231Z,16.24
2017-12-19T04:47:36.692Z,16.24
2017-12-19T04:50:04.140Z,16.24
2017-12-19T04:52:31.812Z,16.22
2017-12-19T04:54:59.259Z,16.23
2017-12-19T04:57:26.735Z,16.23
2017-12-19T04:59:54.192Z,16.23
2017-12-19T05:02:21.675Z,16.25
2017-12-19T05:04:49.127Z,16.25
2017-12-19T05:07:16.600Z,16.26
2017-12-19T05:09:44.051Z,16.26
2017-12-19T05:12:11.520Z,16.30
2017-12-19T05:14:38.979Z,16.30
2017-12-19T05:17:06.460Z,16.33
2017-12-19T05:19:33.910Z,16.36
2017-12-19T05:22:01.376Z,16.38
2017-12-19T05:24:28.823Z,16.41
2017-12-19T05:26:56.283Z,16.44
2017-12-19T05:29:23.764Z,16.48
2017-12-19T05:31:51.220Z,16.53
2017-12-19T05:34:18.700Z,16.56
2017-12-19T05:36:46.152Z,16.62
2017-12-19T05:39:13.620Z,16.66
2017-12-19T05:41:41.102Z,16.70
2017-12-19T05:44:08.791Z,16.73
2017-12-19T05:46:36.246Z,16.76
2017-12-19T05:49:03.750Z,16.80
2017-12-19T05:51:31.392Z,16.83
2017-12-19T05:53:58.835Z,16.87
2017-12-19T05:56:26.304Z,16.90
2017-12-19T05:58:53.947Z,16.93
2017-12-19T06:01:21.611Z,16.97
2017-12-19T06:03:49.063Z,16.99
2017-12-19T06:06:16.746Z,17.02
2017-12-19T06:08:44.186Z,17.05
2017-12-19T06:11:11.639Z,17.08
2017-12-19T06:13:38.918Z,17.10
2017-12-19T06:16:06.375Z,17.12
2017-12-19T06:18:33.843Z,17.13
2017-12-19T06:21:01.285Z,17.16
2017-12-19T06:23:29.235Z,17.18
2017-12-19T06:25:56.688Z,17.19
2017-12-19T06:28:24.138Z,17.22
2017-12-19T06:30:51.635Z,17.24
2017-12-19T06:33:19.079Z,17.26
2017-12-19T06:35:46.755Z,17.29
2017-12-19T06:38:14.207Z,17.29
2017-12-19T06:40:41.689Z,17.33
2017-12-19T06:43:09.347Z,17.35
2017-12-19T06:45:36.805Z,17.35
2017-12-19T06:48:04.271Z,17.38
2017-12-19T06:50:31.734Z,17.40
2017-12-19T06:52:59.220Z,17.42
2017-12-19T06:55:26.874Z,17.44
2017-12-19T06:57:54.322Z,17.44
2017-12-19T07:00:22.044Z,17.46
2017-12-19T07:02:49.652Z,17.46
2017-12-19T07:05:17.109Z,17.48
2017-12-19T07:07:44.579Z,17.49
2017-12-19T07:10:12.034Z,17.50
2017-12-19T07:12:39.492Z,17.55
2017-12-19T07:15:07.002Z,17.59
2017-12-19T07:17:34.652Z,17.60
2017-12-19T07:20:02.113Z,17.63
2017-12-19T07:22:29.775Z,17.65
2017-12-19T07:24:57.256Z,17.66
2017-12-19T07:27:24.716Z,17.69
2017-12-19T07:29:52.503Z,17.70
2017-12-19T07:32:19.951Z,17.69
2017-12-19T07:34:47.398Z,17.71
2017-12-19T07:37:15.087Z,17.72
2017-12-19T07:39:42.543Z,17.72
2017-12-19T07:42:10.060Z,17.70
2017-12-19T07:44:37.699Z,17.72
2017-12-19T07:47:05.149Z,17.74
2017-12-19T07:49:32.826Z,17.74
2017-12-19T07:52:00.479Z,17.76
2017-12-19T07:54:27.967Z,17.76
2017-12-19T07:56:55.614Z,17.77
2017-12-19T07:59:23.195Z,17.77
2017-12-19T08:01:50.842Z,17.78
2017-12-19T08:04:18.499Z,17.78
2017-12-19T08:06:45.960Z,17.80
2017-12-19T08:09:13.625Z,17.81
2017-12-19T08:11:41.111Z,17.82
2017-12-19T08:14:08.562Z,17.82
2017-12-19T08:16:36.200Z,17.83
2017-12-19T08:19:03.909Z,17.83
2017-12-19T08:21:31.567Z,17.84
2017-12-19T08:23:59.315Z,17.86
2017-12-19T08:26:26.776Z,17.86
2017-12-19T08:28:54.224Z,17.88
2017-12-19T08:31:21.708Z,17.89
2017-12-19T08:33:49.166Z,17.91
2017-12-19T08:36:16.631Z,17.92
2017-12-19T08:38:44.283Z,17.94
2017-12-19T08:41:11.736Z,17.94
2017-12-19T08:43:39.187Z,17.98
2017-12-19T08:46:06.677Z,18.00
2017-12-19T08:48:34.355Z,18.02
2017-12-19T08:51:01.802Z,18.05
2017-12-19T08:53:29.256Z,18.05
2017-12-19T08:55:56.936Z,18.04
2017-12-19T08:58:24.588Z,18.04
2017-12-19T09:00:52.275Z,18.03
2017-12-19T09:03:19.726Z,18.05
2017-12-19T09:05:47.414Z,18.07
2017-12-19T09:08:14.866Z,18.08
2017-12-19T09:10:42.320Z,18.11
2017-12-19T09:13:09.800Z,18.13
2017-12-19T09:15:37.563Z,18.15
2017-12-19T09:18:05.040Z,18.20
2017-12-19T09:20:32.524Z,18.21
2017-12-19T09:23:00.003Z,18.24
2017-12-19T09:25:27.659Z,18.26
2017-12-19T09:27:55.283Z,18.29
2017-12-19T09:30:22.736Z,18.30
2017-12-19T09:32:50.190Z,18.33
2017-12-19T09:35:17.667Z,18.34
2017-12-19T09:37:45.132Z,18.37
2017-12-19T09:40:12.612Z,18.38
2017-12-19T09:42:40.263Z,18.40
2017-12-19T09:45:07.760Z,18.41
2017-12-19T09:47:35.206Z,18.45
2017-12-19T09:50:02.695Z,18.46
2017-12-19T09:52:30.171Z,18.48
2017-12-19T09:54:57.632Z,18.49
2017-12-19T09:57:25.379Z,18.50
2017-12-19T09:59:53.035Z,18.51
2017-12-19T10:02:20.294Z,18.53
2017-12-19T10:04:47.764Z,18.54
2017-12-19T10:07:15.416Z,18.56
2017-12-19T10:09:42.868Z,18.57
2017-12-19T10:12:10.319Z,18.58
2017-12-19T10:14:37.786Z,18.58
2017-12-19T10:17:05.246Z,18.58
2017-12-19T10:19:32.724Z,18.59
2017-12-19T10:22:00.184Z,18.63
2017-12-19T10:24:27.712Z,18.63
2017-12-19T10:26:55.302Z,18.64
2017-12-19T10:29:22.784Z,18.65
2017-12-19T10:31:50.439Z,18.67
2017-12-19T10:34:17.923Z,18.69
2017-12-19T10:36:45.584Z,18.70
2017-12-19T10:39:13.035Z,18.70
2017-12-19T10:41:40.791Z,18.73
2017-12-19T10:44:08.252Z,18.75
2017-12-19T10:46:35.898Z,18.76
2017-12-19T10:49:03.374Z,18.76
2017-12-19T10:51:30.823Z,18.76
2017-12-19T10:53:58.291Z,18.75
2017-12-19T10:56:25.963Z,18.76
2017-12-19T10:58:53.415Z,18.77
2017-12-19T11:01:20.895Z,18.76
2017-12-19T11:03:48.342Z,18.77
2017-12-19T11:06:15.795Z,18.77
2017-12-19T11:08:43.243Z,18.78
2017-12-19T11:11:10.696Z,18.79
2017-12-19T11:13:38.152Z,18.80
2017-12-19T11:16:05.609Z,18.79
2017-12-19T11:18:33.100Z,18.77
2017-12-19T11:21:00.546Z,18.77
2017-12-19T11:23:28.235Z,18.78
2017-12-19T11:25:55.690Z,18.79
2017-12-19T11:28:23.492Z,18.81
2017-12-19T11:30:50.928Z,18.82
2017-12-19T11:33:18.375Z,18.83
2017-12-19T11:35:45.832Z,18.83
2017-12-19T11:38:13.283Z,18.83
2017-12-19T11:40:40.545Z,18.84
2017-12-19T11:43:08.224Z,18.84
2017-12-19T11:45:35.852Z,18.84
2017-12-19T11:48:03.305Z,18.83
2017-12-19T11:50:30.955Z,18.82
2017-12-19T11:52:58.423Z,18.80
2017-12-19T11:55:25.883Z,18.77
2017-12-19T11:57:53.542Z,18.76
2017-12-19T12:00:20.991Z,18.75
2017-12-19T12:02:48.655Z,18.73
2017-12-19T12:05:16.304Z,18.73
2017-12-19T12:07:43.763Z,18.72
2017-12-19T12:10:11.211Z,18.71
2017-12-19T12:12:38.668Z,18.72
2017-12-19T12:15:06.159Z,18.71
2017-12-19T12:17:33.604Z,18.71
2017-12-19T12:20:01.068Z,18.72
2017-12-19T12:22:28.728Z,18.72
2017-12-19T12:24:56.183Z,18.71
2017-12-19T12:27:23.634Z,18.72
2017-12-19T12:29:51.096Z,18.74
2017-12-19T12:32:18.559Z,18.73
2017-12-19T12:34:46.011Z,18.72
2017-12-19T12:37:13.473Z,18.72
2017-12-19T12:39:40.927Z,18.73
2017-12-19T12:42:08.387Z,18.72
2017-12-19T12:44:35.839Z,18.71
2017-12-19T12:47:03.287Z,18.71
2017-12-19T12:49:30.747Z,18.70
2017-12-19T12:51:58.194Z,18.69
2017-12-19T12:54:25.659Z,18.69
2017-12-19T12:56:53.108Z,18.69
2017-12-19T12:59:20.608Z,18.69
2017-12-19T13:01:48.060Z,18.69
2017-12-19T13:04:15.528Z,18.68
2017-12-19T13:06:42.990Z,18.69
2017-12-19T13:09:10.435Z,18.70
2017-12-19T13:11:37.887Z,18.69
2017-12-19T13:14:05.336Z,18.70
2017-12-19T13:16:32.789Z,18.71
2017-12-19T13:19:00.243Z,18.71
2017-12-19T13:24:07.335Z,18.75
2017-12-19T13:26:34.792Z,18.76
2017-12-19T13:29:02.252Z,18.76
2017-12-19T13:31:29.880Z,18.76
2017-12-19T13:33:57.331Z,18.77
2017-12-19T13:36:24.972Z,18.78
2017-12-19T13:38:52.420Z,18.80
2017-12-19T13:41:19.875Z,18.81
2017-12-19T13:43:47.331Z,18.84
2017-12-19T13:46:14.816Z,18.85
2017-12-19T13:48:42.258Z,18.86
2017-12-19T13:51:09.711Z,18.88
2017-12-19T13:53:37.159Z,18.88
2017-12-19T13:56:04.616Z,18.87
2017-12-19T13:58:32.071Z,18.89
2017-12-19T14:00:59.525Z,18.90
2017-12-19T14:03:26.977Z,18.91
2017-12-19T14:05:54.436Z,18.91
2017-12-19T14:08:21.882Z,18.92
2017-12-19T14:10:49.327Z,18.93
2017-12-19T14:13:16.788Z,18.92
2017-12-19T14:15:44.248Z,18.93
2017-12-19T14:18:11.859Z,18.94
2017-12-19T14:20:39.312Z,18.94
2017-12-19T14:23:06.572Z,18.94
2017-12-19T14:25:34.024Z,18.95
2017-12-19T14:28:01.479Z,18.96
2017-12-19T14:30:28.936Z,18.96
2017-12-19T14:32:56.398Z,18.96
2017-12-19T14:35:23.871Z,18.95
2017-12-19T14:37:51.327Z,18.93
2017-12-19T14:40:18.783Z,18.93
2017-12-19T14:42:46.235Z,18.93
2017-12-19T14:45:13.687Z,18.95
2017-12-19T14:47:41.162Z,18.93
2017-12-19T14:50:08.619Z,18.94
2017-12-19T14:52:36.100Z,18.95
2017-12-19T14:55:03.884Z,18.96
2017-12-19T14:57:31.283Z,19.02
2017-12-19T14:59:58.726Z,19.03
2017-12-19T15:02:26.184Z,19.00
2017-12-19T15:04:53.627Z,18.79
2017-12-19T15:07:21.084Z,19.05
2017-12-19T15:09:48.536Z,19.05
2017-12-19T15:12:15.990Z,19.05
2017-12-19T15:14:43.448Z,19.07
2017-12-19T15:17:11.168Z,19.08
2017-12-19T15:19:38.779Z,19.09
2017-12-19T15:22:06.436Z,19.09
2017-12-19T15:24:33.886Z,19.09
2017-12-19T15:27:01.331Z,19.10
2017-12-19T15:29:28.960Z,19.11
2017-12-19T15:31:56.412Z,19.13
2017-12-19T15:34:23.888Z,19.14
2017-12-19T15:36:51.556Z,19.14
2017-12-19T15:39:19.008Z,19.31
2017-12-19T15:41:46.468Z,19.21
2017-12-19T15:44:13.924Z,19.17
2017-12-19T15:46:41.416Z,19.15
2017-12-19T15:49:08.873Z,19.14
2017-12-19T15:51:36.553Z,19.14
2017-12-19T15:54:03.999Z,19.14
2017-12-19T15:56:31.671Z,19.13
2017-12-19T15:58:59.127Z,19.14
2017-12-19T16:01:26.769Z,19.14
2017-12-19T16:03:54.230Z,19.14
2017-12-19T16:06:21.883Z,19.14
2017-12-19T16:08:49.535Z,19.13
2017-12-19T16:11:16.988Z,19.14
2017-12-19T16:13:44.441Z,19.14
2017-12-19T16:16:11.887Z,19.13
2017-12-19T16:18:39.340Z,19.12
2017-12-19T16:21:06.793Z,19.13
2017-12-19T16:23:34.480Z,19.12
2017-12-19T16:26:01.937Z,19.16
2017-12-19T16:28:29.426Z,19.18
2017-12-19T16:30:56.938Z,19.16
2017-12-19T16:33:24.438Z,19.16
2017-12-19T16:35:51.895Z,19.16
2017-12-19T16:38:19.348Z,19.15
2017-12-19T16:40:46.803Z,19.16
2017-12-19T16:43:14.251Z,19.15
2017-12-19T16:45:41.707Z,19.16
2017-12-19T16:48:09.159Z,19.16
2017-12-19T16:50:36.632Z,19.17
2017-12-19T16:53:04.086Z,19.17
2017-12-19T16:55:31.717Z,19.18
2017-12-19T16:57:59.380Z,19.18
2017-12-19T17:00:27.036Z,19.18
2017-12-19T17:02:54.507Z,19.18
2017-12-19T17:05:21.975Z,19.19
2017-12-19T17:07:49.422Z,19.17
2017-12-19T17:10:16.875Z,19.17
2017-12-19T17:12:44.328Z,19.17
2017-12-19T17:15:11.859Z,19.15
2017-12-19T17:17:39.303Z,19.14
2017-12-19T17:20:06.944Z,19.15
2017-12-19T17:22:34.395Z,19.14
2017-12-19T17:25:02.048Z,19.14
2017-12-19T17:27:29.494Z,19.21
2017-12-19T17:29:56.962Z,19.40
2017-12-19T17:32:24.415Z,19.34
2017-12-19T17:34:51.866Z,19.32
2017-12-19T17:37:19.319Z,19.32
2017-12-19T17:39:46.774Z,19.31
2017-12-19T17:42:14.231Z,19.33
2017-12-19T17:44:41.688Z,19.33
2017-12-19T17:47:09.143Z,19.32
2017-12-19T17:49:36.595Z,19.33
2017-12-19T17:52:05.242Z,19.31
2017-12-19T17:54:32.702Z,19.31
2017-12-19T17:57:00.156Z,19.32
2017-12-19T17:59:27.608Z,19.31
2017-12-19T18:01:55.064Z,19.31
2017-12-19T18:04:22.519Z,19.32
2017-12-19T18:06:49.975Z,19.31
2017-12-19T18:09:17.426Z,19.31
2017-12-19T18:11:44.876Z,19.31
2017-12-19T18:14:12.363Z,19.32
2017-12-19T18:16:40.012Z,19.29
2017-12-19T18:19:07.451Z,19.27
2017-12-19T18:21:34.902Z,19.26
2017-12-19T18:24:02.348Z,19.27
2017-12-19T18:26:29.996Z,19.27
2017-12-19T18:28:57.452Z,19.28
2017-12-19T18:31:25.083Z,19.29
2017-12-19T18:33:52.750Z,19.31
2017-12-19T18:36:20.194Z,19.34
2017-12-19T18:38:47.675Z,19.36
2017-12-19T18:41:15.111Z,19.36
2017-12-19T18:43:42.586Z,19.36
2017-12-19T18:46:10.040Z,19.40
2017-12-19T18:48:37.516Z,19.40
2017-12-19T18:51:05.343Z,19.42
2017-12-19T18:53:32.796Z,19.38
2017-12-19T18:56:00.448Z,19.38
2017-12-19T18:58:27.899Z,19.37
2017-12-19T19:00:55.356Z,19.36
2017-12-19T19:03:22.808Z,19.37
2017-12-19T19:05:50.263Z,19.36
2017-12-19T19:08:17.724Z,19.36
2017-12-19T19:10:45.179Z,19.36
2017-12-19T19:13:12.833Z,19.35
2017-12-19T19:15:40.300Z,19.35
2017-12-19T19:18:07.824Z,19.32
2017-12-19T19:20:36.424Z,19.30
2017-12-19T19:23:03.881Z,19.31
2017-12-19T19:25:31.530Z,19.28
2017-12-19T19:27:58.987Z,19.14
2017-12-19T19:30:26.457Z,18.74
2017-12-19T19:32:54.116Z,18.84
2017-12-19T19:35:21.555Z,18.93
2017-12-19T19:37:49.015Z,18.98
2017-12-19T19:40:16.467Z,18.98
2017-12-19T19:42:44.132Z,18.98
2017-12-19T19:45:11.590Z,19.02
2017-12-19T19:47:39.253Z,19.04
2017-12-19T19:50:06.908Z,19.06
2017-12-19T19:52:34.573Z,19.05
2017-12-19T19:55:02.024Z,19.05
2017-12-19T19:57:29.664Z,19.06
2017-12-19T19:59:57.116Z,19.07
2017-12-19T20:02:24.571Z,19.06
2017-12-19T20:04:52.030Z,19.05
2017-12-19T20:07:19.656Z,19.04
2017-12-19T20:09:47.107Z,19.01
2017-12-19T20:12:14.555Z,19.01
2017-12-19T20:14:42.011Z,18.98
2017-12-19T20:17:09.683Z,18.99
2017-12-19T20:19:37.138Z,18.98
2017-12-19T20:22:04.662Z,18.98
2017-12-19T20:24:32.128Z,18.97
2017-12-19T20:26:59.572Z,18.96
2017-12-19T20:29:27.028Z,19.03
2017-12-19T20:31:54.688Z,19.35
2017-12-19T20:34:22.160Z,19.72
2017-12-19T20:36:49.624Z,19.43
2017-12-19T20:39:17.075Z,19.28
2017-12-19T20:41:44.538Z,19.19
2017-12-19T20:44:12.004Z,19.14
2017-12-19T20:46:39.659Z,19.09
2017-12-19T20:49:07.111Z,19.06
2017-12-19T20:51:34.767Z,19.04
2017-12-19T20:54:02.224Z,19.02
2017-12-19T20:56:29.691Z,19.01
2017-12-19T20:58:57.146Z,19.00
2017-12-19T21:01:24.814Z,19.00
2017-12-19T21:03:52.463Z,18.98
2017-12-19T21:06:19.933Z,19.00
2017-12-19T21:08:47.395Z,18.93
2017-12-19T21:11:14.840Z,18.89
2017-12-19T21:13:42.297Z,18.85
2017-12-19T21:16:09.967Z,18.80
2017-12-19T21:18:37.414Z,18.78
2017-12-19T21:21:04.867Z,18.76
2017-12-19T21:23:32.327Z,18.72
2017-12-19T21:25:59.793Z,18.70
2017-12-19T21:28:27.452Z,18.66
2017-12-19T21:30:54.899Z,18.65
2017-12-19T21:33:22.363Z,18.63
2017-12-19T21:35:49.823Z,18.60
2017-12-19T21:38:17.159Z,18.58
2017-12-19T21:40:44.715Z,18.57
2017-12-19T21:43:12.235Z,18.55
2017-12-19T21:45:39.692Z,18.52
2017-12-19T21:48:07.148Z,18.50
2017-12-19T21:50:34.596Z,18.50
2017-12-19T21:53:02.043Z,18.47
2017-12-19T21:55:29.499Z,18.45
2017-12-19T21:57:57.038Z,18.44
2017-12-19T22:00:24.515Z,18.42
2017-12-19T22:02:52.018Z,18.41
2017-12-19T22:05:19.473Z,18.39
2017-12-19T22:07:47.072Z,18.37
2017-12-19T22:10:14.524Z,18.37
2017-12-19T22:12:41.976Z,18.35
2017-12-19T22:15:09.439Z,18.33
2017-12-19T22:17:36.890Z,18.32
2017-12-19T22:20:04.339Z,18.31
2017-12-19T22:22:31.787Z,18.28
2017-12-19T22:24:59.243Z,18.27
2017-12-19T22:27:26.711Z,18.25
2017-12-19T22:29:54.147Z,18.23
2017-12-19T22:32:21.643Z,18.21
2017-12-19T22:34:49.288Z,18.19
2017-12-19T22:37:16.738Z,18.19
2017-12-19T22:39:44.208Z,18.17
2017-12-19T22:42:11.654Z,18.16
2017-12-19T22:44:39.115Z,18.14
2017-12-19T22:47:06.554Z,18.13
2017-12-19T22:49:34.023Z,18.12
2017-12-19T22:52:01.455Z,18.11
2017-12-19T22:54:28.899Z,18.09
2017-12-19T22:56:56.371Z,18.09
2017-12-19T22:59:23.814Z,18.08
2017-12-19T23:01:51.267Z,18.05
2017-12-19T23:04:18.711Z,18.05
2017-12-19T23:06:46.168Z,18.03
2017-12-19T23:09:13.615Z,18.01
2017-12-19T23:11:41.063Z,18.00
2017-12-19T23:14:08.524Z,17.98
2017-12-19T23:16:35.978Z,17.99
2017-12-19T23:19:03.432Z,17.97
2017-12-19T23:21:30.892Z,17.95
2017-12-19T23:23:58.368Z,17.94
2017-12-19T23:26:25.820Z,17.93
2017-12-19T23:28:53.326Z,17.92
2017-12-19T23:31:20.978Z,17.89
2017-12-19T23:33:48.415Z,17.88
2017-12-19T23:36:15.875Z,17.88
2017-12-19T23:38:43.328Z,17.86
2017-12-19T23:41:10.784Z,17.85
2017-12-19T23:43:38.240Z,17.85
2017-12-19T23:46:05.690Z,17.84
2017-12-19T23:48:33.145Z,17.83
2017-12-19T23:51:00.595Z,17.82
2017-12-19T23:53:28.060Z,17.80
2017-12-19T23:55:55.528Z,17.79
2017-12-19T23:58:22.967Z,17.78
